Time;durP1;ratioP1;P1;durP2;ratioP2;P2;SDS_P1;SDS_P2;PMS_P1;PMS_P2;Temp;Humidity;BMP_temperature;BMP_pressure;BME280_temperature;BME280_humidity;BME280_pressure;Samples;Min_cycle;Max_cycle;Signal;HPM_P1;HPM_P2
2021/07/03 00:00:34;;;;;;;37.57;11.80;;;;;;;13.20;100.00;101043.75;5079648;28;20067;-72
2021/07/03 00:03:00;;;;;;;43.20;13.30;;;;;;;13.16;100.00;101039.38;5079872;28;20384;-72
2021/07/03 00:05:25;;;;;;;30.33;11.57;;;;;;;13.10;100.00;101037.66;5079094;28;20040;-72
2021/07/03 00:07:51;;;;;;;29.83;11.83;;;;;;;13.08;100.00;101030.63;5075738;28;20039;-72
2021/07/03 00:10:17;;;;;;;37.80;11.67;;;;;;;13.06;100.00;101037.66;5078760;28;20030;-72
2021/07/03 00:12:42;;;;;;;36.67;13.17;;;;;;;13.00;100.00;101032.44;5079551;28;20465;-72
2021/07/03 00:15:16;;;;;;;42.10;13.27;;;;;;;13.08;100.00;101033.25;5079191;28;20395;-71
2021/07/03 00:17:41;;;;;;;49.57;13.77;;;;;;;13.03;100.00;101033.28;5079600;28;20028;-71
2021/07/03 00:20:11;;;;;;;48.63;14.17;;;;;;;13.07;100.00;101029.75;5079364;28;20083;-72
2021/07/03 00:22:37;;;;;;;48.20;14.03;;;;;;;13.06;100.00;101037.66;5079016;28;20111;-71
2021/07/03 00:25:04;;;;;;;52.10;13.53;;;;;;;13.00;100.00;101033.31;5079119;28;20236;-71
2021/07/03 00:27:30;;;;;;;32.27;11.13;;;;;;;12.86;100.00;101037.72;5079314;28;20642;-72
2021/07/03 00:29:56;;;;;;;22.77;8.70;;;;;;;12.66;100.00;101032.50;5079399;28;20174;-72
2021/07/03 00:32:21;;;;;;;22.00;8.17;;;;;;;12.53;100.00;101036.03;5079222;28;20407;-72
2021/07/03 00:34:47;;;;;;;28.80;10.87;;;;;;;12.47;100.00;101042.13;5078969;28;20043;-72
2021/07/03 00:37:12;;;;;;;29.63;10.17;;;;;;;12.49;100.00;101044.78;5078909;28;20071;-72
2021/07/03 00:39:38;;;;;;;35.90;11.53;;;;;;;12.47;100.00;101041.25;5079429;28;20031;-71
2021/07/03 00:42:04;;;;;;;48.13;11.97;;;;;;;12.51;100.00;101043.03;5078925;28;20040;-71
2021/07/03 00:44:33;;;;;;;34.90;12.30;;;;;;;12.49;100.00;101045.66;5079081;28;20153;-72
2021/07/03 00:47:00;;;;;;;55.77;13.77;;;;;;;12.58;100.00;101039.50;5078470;28;20036;-72
2021/07/03 00:49:26;;;;;;;58.67;13.93;;;;;;;12.64;100.00;101043.88;5078985;28;20066;-71
2021/07/03 00:51:52;;;;;;;55.80;14.10;;;;;;;12.65;100.00;101051.75;5078816;28;20034;-71
2021/07/03 00:54:21;;;;;;;43.73;12.37;;;;;;;12.60;100.00;101048.28;5079098;28;20561;-72
2021/07/03 00:56:47;;;;;;;30.37;9.57;;;;;;;12.48;100.00;101043.03;5078589;28;20226;-72
2021/07/03 00:59:13;;;;;;;32.13;8.43;;;;;;;12.41;100.00;101046.53;5079262;28;20304;-72
2021/07/03 01:01:39;;;;;;;25.00;8.90;;;;;;;12.32;100.00;101036.91;5079575;28;20114;-72
2021/07/03 01:04:04;;;;;;;29.07;9.83;;;;;;;12.29;100.00;101037.78;5096029;22;20184;-71
2021/07/03 01:06:30;;;;;;;28.40;9.60;;;;;;;12.26;100.00;101036.91;5050684;28;20029;-72
2021/07/03 01:08:55;;;;;;;25.77;8.57;;;;;;;12.19;100.00;101036.03;5062784;28;20529;-72
2021/07/03 01:11:27;;;;;;;25.63;8.20;;;;;;;12.12;100.00;101042.16;5055946;28;20029;-72
2021/07/03 01:13:53;;;;;;;30.58;9.52;;;;;;;12.14;100.00;101043.03;5062730;28;20035;-72
2021/07/03 01:16:19;;;;;;;31.17;9.77;;;;;;;12.18;100.00;101044.78;5061902;28;20040;-72
2021/07/03 01:18:44;;;;;;;51.23;12.30;;;;;;;12.16;100.00;101033.41;5062651;28;20044;-72
2021/07/03 01:21:11;;;;;;;42.90;11.43;;;;;;;12.17;100.00;101040.41;5057508;28;20247;-72
2021/07/03 01:23:36;;;;;;;43.03;11.43;;;;;;;12.24;100.00;101044.78;5062529;28;20065;-72
2021/07/03 01:26:02;;;;;;;37.40;10.67;;;;;;;12.16;100.00;101041.28;5058401;28;20067;-72
2021/07/03 01:28:28;;;;;;;37.03;11.63;;;;;;;12.14;100.00;101037.78;5062080;28;20278;-72
2021/07/03 01:30:54;;;;;;;58.73;13.20;;;;;;;12.22;100.00;101043.00;5059588;28;20536;-72
2021/07/03 01:33:21;;;;;;;53.50;13.50;;;;;;;12.25;100.00;101038.66;5062599;28;20016;-72
2021/07/03 01:35:46;;;;;;;50.80;13.13;;;;;;;12.20;100.00;101043.03;5060683;28;20176;-72
2021/07/03 01:38:20;;;;;;;49.07;12.43;;;;;;;12.16;100.00;101043.91;5062291;28;20401;-72
2021/07/03 01:40:46;;;;;;;50.57;12.73;;;;;;;12.16;100.00;101038.66;5061878;28;20314;-72
2021/07/03 01:43:18;;;;;;;50.17;12.23;;;;;;;12.17;100.00;101048.28;5062558;28;20022;-71
2021/07/03 01:45:43;;;;;;;58.97;14.23;;;;;;;12.17;100.00;101035.16;5058653;28;20028;-72
2021/07/03 01:48:09;;;;;;;56.97;13.60;;;;;;;12.16;100.00;101036.03;5051561;28;20028;-72
2021/07/03 01:50:34;;;;;;;45.97;10.67;;;;;;;12.26;100.00;101037.78;5058781;28;20107;-72
2021/07/03 01:53:00;;;;;;;39.90;10.87;;;;;;;12.18;100.00;101039.53;5052663;28;20392;-72
2021/07/03 01:55:25;;;;;;;38.20;11.07;;;;;;;12.16;100.00;101036.03;5060813;28;20040;-72
2021/07/03 01:57:51;;;;;;;39.07;11.67;;;;;;;12.12;100.00;101039.53;5052313;28;20311;-72
2021/07/03 02:00:17;;;;;;;52.50;12.40;;;;;;;12.14;100.00;101037.78;5062518;28;20024;-72
2021/07/03 02:02:42;;;;;;;45.73;11.93;;;;;;;12.11;100.00;101036.88;5054393;28;20029;-72
2021/07/03 02:05:09;;;;;;;39.57;11.13;;;;;;;12.00;100.00;101044.78;5064532;28;20143;-71
2021/07/03 02:07:34;;;;;;;28.57;9.57;;;;;;;11.92;100.00;101047.38;5055689;28;20052;-71
2021/07/03 02:10:00;;;;;;;31.80;9.90;;;;;;;11.86;100.00;101043.84;5064770;28;20500;-71
2021/07/03 02:12:26;;;;;;;37.27;12.00;;;;;;;11.91;100.00;101045.63;5056882;28;20416;-71
2021/07/03 02:14:52;;;;;;;50.40;11.80;;;;;;;12.06;100.00;101044.75;5064802;28;20062;-71
2021/07/03 02:17:17;;;;;;;45.63;11.40;;;;;;;12.06;100.00;101043.88;5054279;28;20145;-71
2021/07/03 02:19:43;;;;;;;43.73;11.83;;;;;;;11.97;100.00;101044.75;5064241;28;20020;-71
2021/07/03 02:22:08;;;;;;;41.43;11.50;;;;;;;11.91;100.00;101043.00;5059074;28;20029;-71
2021/07/03 02:24:34;;;;;;;42.50;11.00;;;;;;;11.88;100.00;101040.38;5064637;28;20511;-71
2021/07/03 02:27:00;;;;;;;53.77;13.17;;;;;;;11.89;100.00;101041.25;5059856;28;20032;-71
2021/07/03 02:29:25;;;;;;;62.13;14.00;;;;;;;11.93;100.00;101035.13;5064015;28;20020;-71
2021/07/03 02:31:51;;;;;;;47.73;11.63;;;;;;;11.96;100.00;101040.38;5061213;28;20034;-71
2021/07/03 02:34:16;;;;;;;49.10;11.00;;;;;;;11.89;100.00;101038.63;5063945;28;20020;-71
2021/07/03 02:36:42;;;;;;;38.47;11.23;;;;;;;11.85;100.00;101040.34;5055976;28;20021;-71
2021/07/03 02:39:07;;;;;;;41.90;10.80;;;;;;;11.81;100.00;101041.22;5064731;28;20025;-71
2021/07/03 02:41:33;;;;;;;54.03;12.10;;;;;;;11.84;100.00;101051.72;5063563;28;20060;-72
2021/07/03 02:44:00;;;;;;;51.23;12.33;;;;;;;11.95;100.00;101046.50;5064552;28;20020;-72
2021/07/03 02:46:26;;;;;;;50.37;12.83;;;;;;;11.95;100.00;101051.75;5064360;28;20578;-72
2021/07/03 02:48:52;;;;;;;46.53;11.93;;;;;;;11.88;100.00;101050.00;5064286;28;20567;-72
2021/07/03 02:51:17;;;;;;;53.70;12.07;;;;;;;11.90;100.00;101050.88;5056184;28;20020;-72
2021/07/03 02:53:42;;;;;;;51.27;11.87;;;;;;;12.01;100.00;101046.53;5060637;28;20112;-72
2021/07/03 02:56:08;;;;;;;45.70;11.87;;;;;;;12.04;100.00;101057.00;5057137;28;20446;-72
2021/07/03 02:58:33;;;;;;;44.93;11.53;;;;;;;12.10;100.00;101059.63;5060207;28;20024;-72
2021/07/03 03:00:59;;;;;;;32.33;10.97;;;;;;;12.09;100.00;101055.25;5058275;28;20770;-72
2021/07/03 03:03:25;;;;;;;35.27;10.07;;;;;;;12.19;100.00;101066.63;5059686;28;20025;-72
2021/07/03 03:05:50;;;;;;;42.77;11.80;;;;;;;12.26;100.00;101058.78;5059573;28;20029;-72
2021/07/03 03:08:16;;;;;;;51.67;13.27;;;;;;;12.32;100.00;101065.75;5059493;28;20021;-72
2021/07/03 03:10:41;;;;;;;51.53;12.90;;;;;;;12.27;100.00;101059.66;5063334;28;20028;-72
2021/07/03 03:13:07;;;;;;;50.93;12.67;;;;;;;12.36;100.00;101064.00;5063935;28;20424;-72
2021/07/03 03:15:33;;;;;;;44.20;12.13;;;;;;;12.38;100.00;101062.28;5063726;28;20021;-72
2021/07/03 03:17:58;;;;;;;47.67;12.83;;;;;;;12.39;100.00;101053.53;5063735;28;20020;-72
2021/07/03 03:20:24;;;;;;;51.43;12.70;;;;;;;12.36;100.00;101058.75;5062466;28;20059;-72
2021/07/03 03:22:50;;;;;;;43.93;12.17;;;;;;;12.30;100.00;101057.88;5058415;28;20031;-72
2021/07/03 03:25:16;;;;;;;43.70;11.77;;;;;;;12.27;100.00;101054.41;5063584;28;20095;-71
2021/07/03 03:27:41;;;;;;;53.40;11.67;;;;;;;12.25;100.00;101057.03;5058361;28;20093;-71
2021/07/03 03:30:08;;;;;;;40.43;12.33;;;;;;;12.27;100.00;101057.91;5062700;28;20017;-71
2021/07/03 03:32:35;;;;;;;40.57;10.73;;;;;;;12.28;100.00;101054.41;5059641;28;20593;-72
2021/07/03 03:35:01;;;;;;;38.70;11.20;;;;;;;12.19;100.00;101057.00;5063435;28;20049;-72
2021/07/03 03:37:30;;;;;;;36.33;11.43;;;;;;;12.21;100.00;101057.88;5060571;28;20123;-73
2021/07/03 03:39:56;;;;;;;34.33;11.00;;;;;;;12.18;100.00;101057.88;5063120;28;20055;-72
2021/07/03 03:42:21;;;;;;;38.37;12.00;;;;;;;12.19;100.00;101057.00;5061340;28;20020;-72
2021/07/03 03:44:47;;;;;;;35.63;11.50;;;;;;;12.31;100.00;101058.75;5062013;28;20093;-72
2021/07/03 03:47:12;;;;;;;31.90;10.37;;;;;;;12.28;100.00;101058.78;5063096;28;20025;-72
2021/07/03 03:49:38;;;;;;;41.63;12.43;;;;;;;12.44;100.00;101059.63;5063465;28;20013;-72
2021/07/03 03:52:04;;;;;;;36.10;12.00;;;;;;;12.57;100.00;101058.75;5050034;28;20041;-72
2021/07/03 03:54:29;;;;;;;32.90;11.83;;;;;;;12.59;100.00;101060.47;5062921;28;20059;-72
2021/07/03 03:59:53;;;;;;;33.37;10.60;;;;;;;12.66;100.00;101058.75;4980918;28;20145;-72
2021/07/03 04:02:19;;;;;;;27.90;9.77;;;;;;;12.66;100.00;101058.75;4963923;28;20113;-72
2021/07/03 04:04:45;;;;;;;28.67;10.57;;;;;;;12.70;100.00;101056.97;4973683;28;20050;-72
2021/07/03 04:07:11;;;;;;;28.00;11.40;;;;;;;12.90;100.00;101052.56;4965480;28;20037;-72
2021/07/03 04:09:36;;;;;;;25.47;10.80;;;;;;;13.21;100.00;101047.28;4973722;28;20034;-72
2021/07/03 04:12:02;;;;;;;26.27;10.20;;;;;;;13.61;100.00;101047.97;4966171;28;20061;-72
2021/07/03 04:14:28;;;;;;;25.97;10.37;;;;;;;14.04;100.00;101048.56;4961501;28;20042;-73
2021/07/03 04:16:55;;;;;;;23.47;10.00;;;;;;;14.53;100.00;101053.44;4964520;28;20685;-74
2021/07/03 04:19:20;;;;;;;21.67;9.50;;;;;;;15.03;100.00;101050.34;4961247;28;20143;-74
2021/07/03 04:21:46;;;;;;;24.80;9.60;;;;;;;15.52;100.00;101049.72;4960932;28;20062;-75
2021/07/03 04:24:14;;;;;;;22.03;8.53;;;;;;;16.04;100.00;101044.59;4961001;28;20483;-76
2021/07/03 04:26:40;;;;;;;19.87;8.10;;;;;;;16.55;100.00;101049.91;4960937;28;20038;-76
2021/07/03 04:29:05;;;;;;;17.10;8.80;;;;;;;16.94;100.00;101044.84;4961039;28;20593;-76
2021/07/03 04:31:31;;;;;;;17.37;8.10;;;;;;;17.30;100.00;101043.22;4960833;28;20038;-76
2021/07/03 04:33:57;;;;;;;16.50;7.67;;;;;;;17.53;100.00;101046.25;4961003;28;20632;-75
2021/07/03 04:36:22;;;;;;;12.63;6.33;;;;;;;17.63;100.00;101056.66;5003117;28;20086;-76
2021/07/03 04:38:48;;;;;;;13.63;7.27;;;;;;;17.75;100.00;101051.13;5022840;28;20489;-77
2021/07/03 04:41:13;;;;;;;13.50;6.43;;;;;;;18.22;100.00;101062.38;5021834;28;20156;-75
2021/07/03 04:43:39;;;;;;;26.27;7.37;;;;;;;18.45;100.00;101060.91;5026449;28;20529;-75
2021/07/03 04:46:04;;;;;;;12.03;6.03;;;;;;;18.50;100.00;101055.47;5020096;28;20022;-76
2021/07/03 04:48:30;;;;;;;13.53;6.33;;;;;;;19.01;100.00;101057.69;5019713;28;20601;-76
2021/07/03 04:50:55;;;;;;;15.07;6.57;;;;;;;18.91;100.00;101053.56;5021185;28;20025;-76
2021/07/03 04:53:21;;;;;;;17.10;6.50;;;;;;;19.28;100.00;101054.28;5019095;28;20024;-76
2021/07/03 04:55:46;;;;;;;17.27;6.83;;;;;;;19.59;100.00;101053.41;5022303;28;20037;-77
2021/07/03 04:58:12;;;;;;;17.37;6.80;;;;;;;19.36;100.00;101050.53;5019623;28;20736;-77
2021/07/03 05:00:38;;;;;;;17.63;6.87;;;;;;;19.12;100.00;101052.97;5026099;28;20037;-78
2021/07/03 05:03:04;;;;;;;17.87;6.60;;;;;;;19.06;100.00;101042.53;5025943;28;20025;-77
2021/07/03 05:05:29;;;;;;;16.97;6.47;;;;;;;19.66;100.00;101049.66;5060343;28;20051;-77
2021/07/03 05:07:55;;;;;;;11.30;6.03;;;;;;;19.69;100.00;101046.03;5057683;28;20024;-78
2021/07/03 05:10:21;;;;;;;11.03;6.07;;;;;;;20.34;100.00;101038.59;5065070;28;20013;-78
2021/07/03 05:12:47;;;;;;;13.17;6.27;;;;;;;20.46;100.00;101048.84;5058088;28;20032;-77
2021/07/03 05:15:12;;;;;;;14.47;6.67;;;;;;;20.68;100.00;101053.44;5065419;28;20035;-77
2021/07/03 05:17:38;;;;;;;13.27;6.23;;;;;;;20.60;100.00;101052.84;5065401;28;20036;-77
2021/07/03 05:20:17;;;;;;;10.70;5.77;;;;;;;21.11;100.00;101049.25;5065715;28;20436;-77
2021/07/03 05:22:43;;;;;;;12.47;5.73;;;;;;;22.07;100.00;101057.13;5065474;28;20104;-77
2021/07/03 05:25:09;;;;;;;16.00;5.75;;;;;;;22.71;100.00;101062.44;5065288;28;20040;-78
2021/07/03 05:27:35;;;;;;;12.77;6.07;;;;;;;22.65;100.00;101057.34;5060342;28;20646;-78
2021/07/03 05:30:01;;;;;;;9.90;5.30;;;;;;;22.39;100.00;101057.59;5065610;28;20030;-78
2021/07/03 05:32:26;;;;;;;12.07;5.53;;;;;;;21.92;100.00;101052.38;5061746;28;20025;-77
2021/07/03 05:34:55;;;;;;;10.80;5.30;;;;;;;22.23;100.00;101060.91;5065124;28;20107;-77
2021/07/03 05:37:21;;;;;;;15.48;5.57;;;;;;;22.70;100.00;101055.38;5062036;28;20104;-78
2021/07/03 05:39:46;;;;;;;12.80;4.88;;;;;;;22.87;100.00;101059.13;5065419;28;20100;-78
2021/07/03 05:42:12;;;;;;;14.75;5.78;;;;;;;22.61;100.00;101063.75;5063101;28;20759;-78
2021/07/03 05:44:37;;;;;;;12.80;5.63;;;;;;;23.00;100.00;101061.19;5065114;28;20039;-78
2021/07/03 05:47:03;;;;;;;12.25;5.95;;;;;;;23.52;100.00;101068.66;5064118;28;20038;-77
2021/07/03 05:49:29;;;;;;;9.00;4.95;;;;;;;23.84;100.00;101064.47;5065393;28;20088;-77
2021/07/03 05:51:54;;;;;;;10.20;5.40;;;;;;;22.80;100.00;101067.38;5062619;28;20051;-78
2021/07/03 05:54:20;;;;;;;10.40;5.05;;;;;;;21.99;100.00;101056.53;5072879;28;20032;-79
2021/07/03 05:56:45;;;;;;;12.80;5.70;;;;;;;22.22;100.00;101055.63;5053978;28;20029;-79
2021/07/03 05:59:12;;;;;;;12.63;5.35;;;;;;;22.10;100.00;101057.00;5067450;28;20035;-79
2021/07/03 06:01:38;;;;;;;11.95;5.47;;;;;;;22.61;100.00;101066.44;5054431;28;20033;-78
2021/07/03 06:04:04;;;;;;;13.50;5.50;;;;;;;22.85;100.00;101063.66;5064856;28;20209;-78
2021/07/03 06:06:29;;;;;;;12.48;5.90;;;;;;;23.50;100.00;101060.72;5055385;28;20568;-77
2021/07/03 06:08:55;;;;;;;12.80;6.40;;;;;;;23.68;100.00;101061.69;5064991;28;20039;-78
2021/07/03 06:11:20;;;;;;;13.07;5.57;;;;;;;24.37;100.00;101059.25;5056567;28;20032;-78
2021/07/03 06:13:46;;;;;;;10.45;5.03;;;;;;;23.97;100.00;101063.81;5064951;28;20105;-78
2021/07/03 06:16:11;;;;;;;13.45;5.95;;;;;;;23.37;100.00;101057.72;5066523;28;20687;-79
2021/07/03 06:18:37;;;;;;;12.48;5.95;;;;;;;22.86;100.00;101050.25;5067961;28;20638;-79
2021/07/03 06:21:02;;;;;;;9.02;5.00;;;;;;;23.25;100.00;101054.75;5059049;28;20028;-78
2021/07/03 06:23:29;;;;;;;9.25;5.10;;;;;;;23.62;100.00;101064.63;5065002;28;20220;-78
2021/07/03 06:25:55;;;;;;;9.88;4.68;;;;;;;24.12;100.00;101064.03;5059500;28;20542;-77
2021/07/03 06:28:20;;;;;;;11.20;5.35;;;;;;;25.21;97.85;101067.41;5064484;28;20070;-77
2021/07/03 06:30:46;;;;;;;8.02;4.47;;;;;;;25.96;86.22;101072.22;5060893;28;20032;-77
2021/07/03 06:33:12;;;;;;;9.40;4.30;;;;;;;26.32;80.43;101071.91;5064468;28;20024;-77
2021/07/03 06:35:38;;;;;;;9.77;4.80;;;;;;;25.73;81.32;101065.44;5061154;28;20439;-78
2021/07/03 06:38:06;;;;;;;10.82;4.72;;;;;;;25.91;85.08;101069.75;5063934;28;20021;-77
2021/07/03 06:40:32;;;;;;;9.00;4.53;;;;;;;26.51;76.70;101072.56;5062455;28;20024;-77
2021/07/03 06:42:57;;;;;;;8.70;4.50;;;;;;;26.03;78.23;101072.69;5059979;28;20111;-77
2021/07/03 06:45:23;;;;;;;10.02;4.50;;;;;;;27.02;79.93;101074.97;5063894;28;20031;-77
2021/07/03 06:47:49;;;;;;;7.88;4.00;;;;;;;27.70;77.99;101077.84;5063860;28;20078;-77
2021/07/03 06:50:14;;;;;;;8.15;4.47;;;;;;;27.49;71.84;101084.53;5064018;28;20017;-77
2021/07/03 06:52:40;;;;;;;7.97;4.30;;;;;;;27.01;75.59;101090.19;5050985;28;20511;-77
2021/07/03 06:55:07;;;;;;;8.38;4.53;;;;;;;27.41;70.78;101088.59;5064176;28;20032;-78
2021/07/03 06:57:32;;;;;;;9.80;4.47;;;;;;;26.37;72.34;101077.03;5057483;28;20064;-79
2021/07/03 06:59:58;;;;;;;12.00;4.18;;;;;;;26.50;74.05;101072.66;5063808;28;20044;-77
2021/07/03 07:02:23;;;;;;;8.15;4.63;;;;;;;27.20;74.23;101073.81;5053867;28;20039;-77
2021/07/03 07:04:49;;;;;;;11.07;4.15;;;;;;;27.67;68.27;101078.91;5062465;28;20044;-77
2021/07/03 07:07:14;;;;;;;6.80;3.58;;;;;;;27.28;64.73;101070.66;5054815;28;20146;-78
2021/07/03 07:09:40;;;;;;;9.75;4.00;;;;;;;27.35;69.95;101072.84;5063626;28;20036;-77
2021/07/03 07:12:07;;;;;;;9.27;4.28;;;;;;;27.27;69.18;101075.16;5055867;28;20054;-77
2021/07/03 07:14:32;;;;;;;8.77;3.88;;;;;;;26.58;70.20;101076.63;5063660;28;20028;-77
2021/07/03 07:16:58;;;;;;;13.20;4.15;;;;;;;25.62;79.97;101068.69;5063169;28;20793;-77
2021/07/03 07:19:24;;;;;;;8.52;4.10;;;;;;;26.96;74.71;101075.28;5063187;28;20115;-76
2021/07/03 07:21:49;;;;;;;7.18;3.65;;;;;;;28.11;67.66;101087.78;5058048;28;20392;-76
2021/07/03 07:24:15;;;;;;;7.00;3.47;;;;;;;27.57;69.84;101082.25;5063074;28;20020;-76
2021/07/03 07:26:41;;;;;;;7.97;3.65;;;;;;;26.99;65.65;101075.09;5058901;28;20056;-76
2021/07/03 07:29:06;;;;;;;6.30;2.85;;;;;;;25.39;66.22;101077.13;5062766;28;20028;-76
2021/07/03 07:31:32;;;;;;;8.20;2.85;;;;;;;24.52;70.87;101074.50;5060260;28;20028;-76
2021/07/03 07:33:57;;;;;;;8.07;3.10;;;;;;;24.76;79.55;101077.75;5063094;28;20032;-76
2021/07/03 07:36:23;;;;;;;11.27;3.45;;;;;;;24.87;78.47;101073.66;5060940;28;20108;-76
2021/07/03 07:38:49;;;;;;;9.00;3.28;;;;;;;27.03;70.21;101082.06;5062623;28;20024;-76
2021/07/03 07:41:17;;;;;;;7.07;3.20;;;;;;;27.03;69.40;101077.53;5061365;28;20024;-76
2021/07/03 07:43:43;;;;;;;6.80;3.15;;;;;;;27.80;59.54;101087.06;5062949;28;20017;-76
2021/07/03 07:46:09;;;;;;;7.53;3.30;;;;;;;26.44;65.07;101083.78;5062933;28;20035;-76
2021/07/03 07:48:34;;;;;;;6.05;3.10;;;;;;;28.24;65.73;101083.31;5062903;28;20519;-76
2021/07/03 07:51:01;;;;;;;7.32;3.13;;;;;;;27.75;66.21;101080.25;5057230;28;20021;-76
2021/07/03 07:53:30;;;;;;;6.88;3.13;;;;;;;28.55;62.55;101082.13;5060587;28;20112;-77
2021/07/03 07:55:57;;;;;;;6.22;2.90;;;;;;;27.95;62.02;101080.69;5057764;28;20025;-77
2021/07/03 07:58:23;;;;;;;7.13;2.63;;;;;;;27.51;57.82;101078.16;5057132;28;20028;-77
2021/07/03 08:00:49;;;;;;;6.45;2.90;;;;;;;29.24;57.32;101078.25;5058521;28;20440;-77
2021/07/03 08:03:15;;;;;;;10.48;2.67;;;;;;;29.66;55.15;101077.03;5057424;28;20079;-77
2021/07/03 08:05:40;;;;;;;6.57;2.70;;;;;;;29.04;59.19;101078.78;5059485;28;20037;-76
2021/07/03 08:08:06;;;;;;;6.85;2.70;;;;;;;28.18;59.59;101081.88;5057239;28;20024;-76
2021/07/03 08:10:36;;;;;;;7.47;3.13;;;;;;;27.24;60.89;101080.72;5060518;28;20540;-77
2021/07/03 08:13:03;;;;;;;6.05;3.08;;;;;;;28.67;64.09;101075.03;5057765;28;20047;-77
2021/07/03 08:15:31;;;;;;;8.25;3.47;;;;;;;27.85;61.12;101071.47;5061943;28;20017;-76
2021/07/03 08:17:57;;;;;;;8.63;3.20;;;;;;;29.90;53.10;101069.00;5062655;28;20028;-77
2021/07/03 08:20:22;;;;;;;9.57;3.60;;;;;;;29.87;54.34;101073.75;5061679;28;20064;-76
2021/07/03 08:22:52;;;;;;;8.50;3.50;;;;;;;31.01;49.33;101083.13;5058304;28;20052;-77
2021/07/03 08:25:22;;;;;;;9.88;3.90;;;;;;;30.42;48.40;101069.69;5062701;28;20089;-77
2021/07/03 08:27:49;;;;;;;9.15;3.60;;;;;;;31.23;49.23;101069.69;5058980;28;20035;-77
2021/07/03 08:30:16;;;;;;;7.47;3.33;;;;;;;28.76;50.54;101064.53;5062232;28;20039;-77
2021/07/03 08:32:42;;;;;;;9.50;3.63;;;;;;;28.47;58.25;101058.44;5059267;28;20032;-76
2021/07/03 08:35:09;;;;;;;7.90;3.47;;;;;;;28.54;53.39;101057.03;5061064;28;20024;-76
2021/07/03 08:37:35;;;;;;;8.77;3.83;;;;;;;30.96;48.21;101064.59;5059465;28;20032;-78
2021/07/03 08:40:02;;;;;;;9.20;3.80;;;;;;;31.25;45.21;101065.00;5062481;28;20108;-78
2021/07/03 08:42:28;;;;;;;7.43;3.75;;;;;;;29.72;52.29;101049.63;5061171;28;20028;-77
2021/07/03 08:44:54;;;;;;;9.48;3.80;;;;;;;28.59;55.41;101045.94;5062387;28;20032;-77
2021/07/03 08:47:20;;;;;;;8.60;4.22;;;;;;;27.65;57.62;101045.03;5062176;28;20058;-76
2021/07/03 08:49:52;;;;;;;8.05;4.05;;;;;;;26.03;64.77;101038.72;5062472;28;20423;-77
2021/07/03 08:52:18;;;;;;;8.80;4.03;;;;;;;25.22;67.36;101034.34;5049503;28;20080;-76
2021/07/03 08:54:43;;;;;;;7.05;3.97;;;;;;;24.84;66.72;101031.88;5062601;28;20024;-77
2021/07/03 08:57:11;;;;;;;9.88;4.18;;;;;;;26.16;60.96;101039.72;5050851;28;20074;-76
2021/07/03 08:59:36;;;;;;;11.45;4.78;;;;;;;25.17;62.79;101031.03;5062438;28;20028;-77
2021/07/03 09:02:02;;;;;;;8.88;4.18;;;;;;;27.40;63.94;101038.50;5051366;28;20035;-76
2021/07/03 09:04:38;;;;;;;8.70;4.28;;;;;;;26.93;64.00;101024.47;5062772;28;20060;-78
2021/07/03 09:07:34;;;;;;;7.85;4.57;;;;;;;23.04;81.68;101020.13;5054134;28;20039;-76
2021/07/03 09:10:00;;;;;;;10.45;5.20;;;;;;;24.57;75.23;101023.44;5058376;28;20040;-76
2021/07/03 09:12:33;;;;;;;8.50;4.10;;;;;;;26.84;61.74;101029.44;5053720;28;20529;-77
2021/07/03 09:15:13;;;;;;;9.85;4.35;;;;;;;28.51;57.80;101033.03;5061893;28;20027;-76
2021/07/03 09:17:54;;;;;;;7.72;4.25;;;;;;;28.60;59.18;101031.53;5061699;28;20086;-77
2021/07/03 09:20:37;;;;;;;9.75;4.63;;;;;;;27.52;55.05;101027.94;5062059;28;20027;-78
2021/07/03 09:23:14;;;;;;;8.95;3.83;;;;;;;28.40;53.00;101027.50;5058473;28;20028;-78
2021/07/03 09:25:46;;;;;;;9.10;4.40;;;;;;;28.73;54.88;101024.34;5059219;28;20045;-76
2021/07/03 09:28:14;;;;;;;10.25;4.20;;;;;;;29.75;54.14;101030.53;5062709;28;20029;-77
2021/07/03 09:30:43;;;;;;;10.02;4.05;;;;;;;28.66;58.49;101031.09;5062569;28;20028;-78
2021/07/03 09:33:09;;;;;;;13.80;4.72;;;;;;;29.67;56.81;101030.22;5064882;28;20381;-77
2021/07/03 09:35:35;;;;;;;7.65;4.00;;;;;;;30.41;50.53;101030.13;5063498;28;20024;-76
2021/07/03 09:38:03;;;;;;;13.02;4.55;;;;;;;30.50;52.13;101029.44;5064138;28;20082;-77
2021/07/03 09:40:30;;;;;;;8.45;3.70;;;;;;;30.39;50.56;101027.56;5058845;28;20476;-78
2021/07/03 09:43:09;;;;;;;8.75;4.22;;;;;;;27.59;54.96;101022.06;5064878;28;20553;-78
2021/07/03 09:45:35;;;;;;;11.30;4.93;;;;;;;27.19;59.70;101013.00;5059667;28;20107;-78
2021/07/03 09:48:11;;;;;;;11.05;4.80;;;;;;;28.71;55.55;101014.63;5066116;28;20020;-79
2021/07/03 09:50:39;;;;;;;9.23;4.35;;;;;;;26.84;59.20;101005.28;5059340;28;20086;-76
2021/07/03 09:53:06;;;;;;;8.98;4.65;;;;;;;26.31;63.02;101003.13;5056794;28;20048;-76
2021/07/03 09:55:32;;;;;;;10.30;4.70;;;;;;;23.23;74.60;100988.09;5062390;28;20036;-75
2021/07/03 09:57:59;;;;;;;9.95;5.03;;;;;;;25.29;65.80;100996.41;5055811;28;20079;-76
2021/07/03 10:00:25;;;;;;;8.43;4.50;;;;;;;26.76;60.22;100998.63;5062776;28;20055;-76
2021/07/03 10:02:51;;;;;;;14.63;4.65;;;;;;;29.23;51.96;101002.91;5062970;28;20060;-76
2021/07/03 10:05:20;;;;;;;8.73;4.30;;;;;;;28.74;53.77;100996.44;5058924;28;20193;-76
2021/07/03 10:07:51;;;;;;;8.52;3.78;;;;;;;27.78;55.26;100989.50;5056919;28;20036;-76
2021/07/03 10:10:23;;;;;;;10.35;4.38;;;;;;;27.72;61.99;100995.28;5062937;28;20039;-75
2021/07/03 10:12:57;;;;;;;10.20;4.47;;;;;;;27.81;60.70;100992.00;5060142;28;20037;-75
2021/07/03 10:15:31;;;;;;;8.88;3.95;;;;;;;28.39;56.17;100995.34;5060694;28;20025;-76
2021/07/03 10:18:16;;;;;;;9.48;4.03;;;;;;;28.23;53.32;100996.34;5053022;28;20070;-76
2021/07/03 10:20:44;;;;;;;9.73;4.57;;;;;;;30.97;47.09;101006.00;5055041;28;20029;-75
2021/07/03 10:23:10;;;;;;;7.70;3.92;;;;;;;30.59;45.62;101001.75;5050592;28;20067;-75
2021/07/03 10:25:49;;;;;;;7.30;3.90;;;;;;;30.42;49.75;101004.91;5063286;28;20031;-76
2021/07/03 10:28:16;;;;;;;8.88;4.05;;;;;;;31.43;47.08;101012.19;5057662;28;20025;-75
2021/07/03 10:30:44;;;;;;;7.85;3.30;;;;;;;30.10;48.50;100999.25;5061241;28;20032;-75
2021/07/03 10:33:19;;;;;;;8.85;3.72;;;;;;;27.04;52.50;101003.22;5058003;28;20110;-74
2021/07/03 10:35:47;;;;;;;7.03;3.42;;;;;;;26.81;52.40;100996.56;5048721;28;20108;-74
2021/07/03 10:38:22;;;;;;;6.90;3.53;;;;;;;26.61;52.41;100987.03;5059815;28;20063;-75
2021/07/03 10:41:15;;;;;;;9.82;3.60;;;;;;;26.52;55.88;100979.53;5060552;28;20102;-75
2021/07/03 10:43:45;;;;;;;8.55;3.47;;;;;;;28.16;52.36;100989.63;5001308;28;20038;-76
2021/07/03 10:46:10;;;;;;;9.07;3.50;;;;;;;28.25;51.24;100988.16;5000812;28;20548;-76
2021/07/03 10:48:36;;;;;;;6.80;3.80;;;;;;;30.18;49.40;101002.22;5001957;28;20038;-75
2021/07/03 10:51:13;;;;;;;6.82;3.67;;;;;;;28.58;50.63;100988.56;4995652;28;20026;-75
2021/07/03 10:53:39;;;;;;;10.07;3.78;;;;;;;27.22;63.77;100980.56;5000512;28;20031;-74
2021/07/03 10:56:14;;;;;;;8.18;3.85;;;;;;;26.83;62.78;100982.06;4996911;28;20026;-74
2021/07/03 10:58:40;;;;;;;7.95;3.42;;;;;;;27.63;63.70;100982.44;5001892;28;20434;-74
2021/07/03 11:01:14;;;;;;;8.27;4.00;;;;;;;27.66;56.62;100982.25;4998999;28;20040;-74
2021/07/03 11:03:47;;;;;;;8.65;3.80;;;;;;;27.27;56.28;100978.47;5001376;28;20053;-74
2021/07/03 11:06:22;;;;;;;8.30;3.40;;;;;;;26.91;55.67;100975.38;4999398;28;20041;-74
2021/07/03 11:08:49;;;;;;;7.10;3.75;;;;;;;25.63;65.01;100965.94;5001563;28;20053;-74
2021/07/03 11:11:16;;;;;;;8.95;3.97;;;;;;;24.73;70.64;100970.03;5000012;28;20713;-73
2021/07/03 11:13:44;;;;;;;9.30;4.40;;;;;;;24.72;70.70;100965.63;5001046;28;20030;-73